sensor_id;sensor_type;location;lat;lon;timestamp;pressure;altitude;pressure_sealevel;temperature;humidity
62789;BME280;66401;42.016;21.454;2023-05-21T00:02:07;97987.25;;;15.01;81.23
62789;BME280;66401;42.016;21.454;2023-05-21T00:04:37;97982.53;;;14.68;83.32
62789;BME280;66401;42.016;21.454;2023-05-21T00:07:05;97980.47;;;14.70;82.42
62789;BME280;66401;42.016;21.454;2023-05-21T00:09:30;97971.72;;;14.88;81.18
62789;BME280;66401;42.016;21.454;2023-05-21T00:11:56;97978.00;;;14.99;81.22
62789;BME280;66401;42.016;21.454;2023-05-21T00:14:21;97981.75;;;14.91;80.79
62789;BME280;66401;42.016;21.454;2023-05-21T00:16:47;97976.28;;;14.81;81.73
62789;BME280;66401;42.016;21.454;2023-05-21T00:19:12;97989.13;;;14.71;81.34
62789;BME280;66401;42.016;21.454;2023-05-21T00:21:38;97992.47;;;14.78;81.52
62789;BME280;66401;42.016;21.454;2023-05-21T00:24:04;97993.34;;;14.72;82.43
62789;BME280;66401;42.016;21.454;2023-05-21T00:26:30;97989.44;;;14.63;83.22
62789;BME280;66401;42.016;21.454;2023-05-21T00:28:55;97987.22;;;14.78;81.83
62789;BME280;66401;42.016;21.454;2023-05-21T00:31:21;97988.91;;;14.84;80.86
62789;BME280;66401;42.016;21.454;2023-05-21T00:33:46;97986.53;;;14.94;80.86
62789;BME280;66401;42.016;21.454;2023-05-21T00:36:12;97992.16;;;14.98;80.56
62789;BME280;66401;42.016;21.454;2023-05-21T00:38:42;97989.06;;;14.89;80.61
62789;BME280;66401;42.016;21.454;2023-05-21T00:41:09;97988.09;;;14.72;82.22
62789;BME280;66401;42.016;21.454;2023-05-21T00:43:35;97989.91;;;14.59;82.23
62789;BME280;66401;42.016;21.454;2023-05-21T00:46:07;97992.50;;;14.48;81.98
62789;BME280;66401;42.016;21.454;2023-05-21T00:48:36;97986.13;;;14.55;81.97
62789;BME280;66401;42.016;21.454;2023-05-21T00:51:02;97977.44;;;14.55;82.57
62789;BME280;66401;42.016;21.454;2023-05-21T00:53:29;97979.13;;;14.79;81.24
62789;BME280;66401;42.016;21.454;2023-05-21T00:55:56;97979.00;;;14.86;81.33
62789;BME280;66401;42.016;21.454;2023-05-21T00:58:22;97976.50;;;14.91;80.38
62789;BME280;66401;42.016;21.454;2023-05-21T01:00:47;97971.81;;;14.93;79.36
62789;BME280;66401;42.016;21.454;2023-05-21T01:03:13;97969.75;;;14.83;80.89
62789;BME280;66401;42.016;21.454;2023-05-21T01:05:41;97966.47;;;14.88;80.67
62789;BME280;66401;42.016;21.454;2023-05-21T01:08:09;97959.75;;;14.92;79.99
62789;BME280;66401;42.016;21.454;2023-05-21T01:10:34;97954.16;;;14.77;80.53
62789;BME280;66401;42.016;21.454;2023-05-21T01:13:00;97951.06;;;14.68;81.91
62789;BME280;66401;42.016;21.454;2023-05-21T01:15:26;97949.69;;;14.36;82.22
62789;BME280;66401;42.016;21.454;2023-05-21T01:17:53;97956.19;;;14.33;83.01
62789;BME280;66401;42.016;21.454;2023-05-21T01:20:19;97960.34;;;14.22;83.49
62789;BME280;66401;42.016;21.454;2023-05-21T01:22:52;97951.13;;;14.20;83.95
62789;BME280;66401;42.016;21.454;2023-05-21T01:25:18;97949.38;;;14.14;84.40
62789;BME280;66401;42.016;21.454;2023-05-21T01:27:43;97957.03;;;14.15;84.14
62789;BME280;66401;42.016;21.454;2023-05-21T01:30:09;97956.00;;;14.16;84.19
62789;BME280;66401;42.016;21.454;2023-05-21T01:32:55;97956.69;;;13.93;84.35
62789;BME280;66401;42.016;21.454;2023-05-21T01:35:31;97947.53;;;14.02;83.69
62789;BME280;66401;42.016;21.454;2023-05-21T01:38:25;97954.09;;;13.93;84.73
62789;BME280;66401;42.016;21.454;2023-05-21T01:40:55;97945.06;;;13.89;83.90
62789;BME280;66401;42.016;21.454;2023-05-21T01:43:30;97959.41;;;14.17;82.86
62789;BME280;66401;42.016;21.454;2023-05-21T01:45:58;97959.13;;;14.07;84.90
62789;BME280;66401;42.016;21.454;2023-05-21T01:48:26;97960.19;;;13.87;85.77
62789;BME280;66401;42.016;21.454;2023-05-21T01:50:52;97951.47;;;13.93;84.33
62789;BME280;66401;42.016;21.454;2023-05-21T01:53:19;97953.81;;;13.83;86.22
62789;BME280;66401;42.016;21.454;2023-05-21T01:55:45;97936.22;;;13.72;85.51
62789;BME280;66401;42.016;21.454;2023-05-21T01:58:11;97938.19;;;14.07;83.93
62789;BME280;66401;42.016;21.454;2023-05-21T02:00:37;97943.44;;;14.07;83.86
62789;BME280;66401;42.016;21.454;2023-05-21T02:03:04;97942.38;;;14.26;82.67
62789;BME280;66401;42.016;21.454;2023-05-21T02:05:30;97944.88;;;14.21;80.90
62789;BME280;66401;42.016;21.454;2023-05-21T02:07:55;97946.91;;;14.19;82.59
62789;BME280;66401;42.016;21.454;2023-05-21T02:10:21;97929.75;;;14.35;81.00
62789;BME280;66401;42.016;21.454;2023-05-21T02:12:47;97919.97;;;14.42;80.00
62789;BME280;66401;42.016;21.454;2023-05-21T02:15:12;97925.16;;;14.48;79.71
62789;BME280;66401;42.016;21.454;2023-05-21T02:17:42;97937.56;;;14.53;79.38
62789;BME280;66401;42.016;21.454;2023-05-21T02:20:08;97930.22;;;14.43;80.03
62789;BME280;66401;42.016;21.454;2023-05-21T02:22:42;97921.16;;;14.46;79.76
62789;BME280;66401;42.016;21.454;2023-05-21T02:25:09;97919.25;;;13.93;82.05
62789;BME280;66401;42.016;21.454;2023-05-21T02:27:36;97921.94;;;14.16;81.39
62789;BME280;66401;42.016;21.454;2023-05-21T02:30:03;97917.25;;;14.07;82.29
62789;BME280;66401;42.016;21.454;2023-05-21T02:32:29;97916.38;;;14.13;80.98
62789;BME280;66401;42.016;21.454;2023-05-21T02:34:56;97917.75;;;14.27;80.63
62789;BME280;66401;42.016;21.454;2023-05-21T02:37:24;97920.50;;;13.90;82.62
62789;BME280;66401;42.016;21.454;2023-05-21T02:39:49;97915.97;;;13.79;83.56
62789;BME280;66401;42.016;21.454;2023-05-21T02:42:15;97922.25;;;13.60;84.91
62789;BME280;66401;42.016;21.454;2023-05-21T02:44:40;97917.06;;;13.41;85.41
62789;BME280;66401;42.016;21.454;2023-05-21T02:47:06;97920.25;;;13.25;84.61
62789;BME280;66401;42.016;21.454;2023-05-21T02:49:34;97918.59;;;13.06;85.76
62789;BME280;66401;42.016;21.454;2023-05-21T02:52:00;97919.31;;;13.13;85.61
62789;BME280;66401;42.016;21.454;2023-05-21T02:54:25;97901.44;;;13.10;85.83
62789;BME280;66401;42.016;21.454;2023-05-21T02:56:54;97919.22;;;13.44;84.61
62789;BME280;66401;42.016;21.454;2023-05-21T02:59:19;97913.44;;;13.17;86.07
62789;BME280;66401;42.016;21.454;2023-05-21T03:01:45;97905.00;;;12.97;86.17
62789;BME280;66401;42.016;21.454;2023-05-21T03:04:10;97918.19;;;13.27;85.32
62789;BME280;66401;42.016;21.454;2023-05-21T03:06:36;97917.13;;;13.10;85.52
62789;BME280;66401;42.016;21.454;2023-05-21T03:09:02;97915.09;;;13.12;85.79
62789;BME280;66401;42.016;21.454;2023-05-21T03:11:27;97920.47;;;13.17;86.05
62789;BME280;66401;42.016;21.454;2023-05-21T03:13:53;97920.31;;;13.12;86.02
62789;BME280;66401;42.016;21.454;2023-05-21T03:16:18;97926.84;;;13.28;84.91
62789;BME280;66401;42.016;21.454;2023-05-21T03:18:44;97928.16;;;13.37;83.72
62789;BME280;66401;42.016;21.454;2023-05-21T03:21:09;97931.28;;;13.27;84.95
62789;BME280;66401;42.016;21.454;2023-05-21T03:23:38;97928.66;;;13.27;86.89
62789;BME280;66401;42.016;21.454;2023-05-21T03:26:04;97924.56;;;13.31;85.67
62789;BME280;66401;42.016;21.454;2023-05-21T03:28:30;97921.59;;;13.28;85.91
62789;BME280;66401;42.016;21.454;2023-05-21T03:30:55;97927.06;;;13.44;86.25
62789;BME280;66401;42.016;21.454;2023-05-21T03:33:21;97925.47;;;13.25;86.55
62789;BME280;66401;42.016;21.454;2023-05-21T03:35:47;97923.44;;;13.27;86.75
62789;BME280;66401;42.016;21.454;2023-05-21T03:38:12;97923.78;;;13.49;85.39
62789;BME280;66401;42.016;21.454;2023-05-21T03:40:38;97915.00;;;13.43;86.32
62789;BME280;66401;42.016;21.454;2023-05-21T03:43:03;97931.50;;;13.44;86.47
62789;BME280;66401;42.016;21.454;2023-05-21T03:45:29;97931.00;;;13.35;86.48
62789;BME280;66401;42.016;21.454;2023-05-21T03:47:54;97925.59;;;13.30;88.29
62789;BME280;66401;42.016;21.454;2023-05-21T03:50:20;97929.00;;;13.31;88.10
62789;BME280;66401;42.016;21.454;2023-05-21T03:52:45;97925.47;;;13.25;88.08
62789;BME280;66401;42.016;21.454;2023-05-21T03:55:11;97930.69;;;13.25;88.91
62789;BME280;66401;42.016;21.454;2023-05-21T03:57:36;97934.41;;;13.11;90.27
62789;BME280;66401;42.016;21.454;2023-05-21T04:00:02;97926.22;;;13.07;90.87
62789;BME280;66401;42.016;21.454;2023-05-21T04:02:29;97931.13;;;13.22;90.04
62789;BME280;66401;42.016;21.454;2023-05-21T04:04:54;97933.88;;;13.27;90.80
62789;BME280;66401;42.016;21.454;2023-05-21T04:07:20;97933.16;;;13.20;90.53
62789;BME280;66401;42.016;21.454;2023-05-21T04:09:46;97935.78;;;13.38;90.13
62789;BME280;66401;42.016;21.454;2023-05-21T04:12:12;97937.31;;;13.46;90.08
62789;BME280;66401;42.016;21.454;2023-05-21T04:14:38;97937.38;;;13.39;90.27
62789;BME280;66401;42.016;21.454;2023-05-21T04:17:03;97935.94;;;13.43;91.07
62789;BME280;66401;42.016;21.454;2023-05-21T04:19:32;97937.53;;;13.44;91.18
62789;BME280;66401;42.016;21.454;2023-05-21T04:21:57;97938.13;;;13.46;91.52
62789;BME280;66401;42.016;21.454;2023-05-21T04:24:23;97927.94;;;13.38;92.17
62789;BME280;66401;42.016;21.454;2023-05-21T04:26:49;97933.31;;;13.62;90.25
62789;BME280;66401;42.016;21.454;2023-05-21T04:29:15;97932.72;;;13.78;89.98
62789;BME280;66401;42.016;21.454;2023-05-21T04:31:48;97936.59;;;14.06;88.40
62789;BME280;66401;42.016;21.454;2023-05-21T04:34:14;97935.19;;;14.21;87.24
62789;BME280;66401;42.016;21.454;2023-05-21T04:36:43;97932.66;;;13.66;89.37
62789;BME280;66401;42.016;21.454;2023-05-21T04:39:10;97937.53;;;13.63;90.13
62789;BME280;66401;42.016;21.454;2023-05-21T04:41:37;97933.72;;;13.77;90.31
62789;BME280;66401;42.016;21.454;2023-05-21T04:44:06;97947.66;;;14.08;88.83
62789;BME280;66401;42.016;21.454;2023-05-21T04:46:32;97940.44;;;13.55;90.53
62789;BME280;66401;42.016;21.454;2023-05-21T04:49:01;97942.50;;;13.53;89.66
62789;BME280;66401;42.016;21.454;2023-05-21T04:51:28;97939.06;;;13.52;89.87
62789;BME280;66401;42.016;21.454;2023-05-21T04:53:53;97933.91;;;13.64;89.14
62789;BME280;66401;42.016;21.454;2023-05-21T04:56:19;97935.00;;;14.04;88.23
62789;BME280;66401;42.016;21.454;2023-05-21T04:58:46;97935.78;;;14.35;85.63
62789;BME280;66401;42.016;21.454;2023-05-21T05:01:14;97931.19;;;14.49;85.28
62789;BME280;66401;42.016;21.454;2023-05-21T05:03:40;97929.97;;;14.75;82.96
62789;BME280;66401;42.016;21.454;2023-05-21T05:06:05;97923.47;;;14.66;83.62
62789;BME280;66401;42.016;21.454;2023-05-21T05:08:32;97922.81;;;14.40;85.30
62789;BME280;66401;42.016;21.454;2023-05-21T05:10:58;97932.00;;;14.49;84.29
62789;BME280;66401;42.016;21.454;2023-05-21T05:13:24;97928.59;;;14.19;85.42
62789;BME280;66401;42.016;21.454;2023-05-21T05:15:50;97921.41;;;14.56;83.35
62789;BME280;66401;42.016;21.454;2023-05-21T05:18:18;97922.47;;;14.90;82.10
62789;BME280;66401;42.016;21.454;2023-05-21T05:20:44;97921.53;;;14.73;81.05
62789;BME280;66401;42.016;21.454;2023-05-21T05:23:11;97921.06;;;14.52;81.43
62789;BME280;66401;42.016;21.454;2023-05-21T05:25:36;97922.78;;;14.70;81.05
62789;BME280;66401;42.016;21.454;2023-05-21T05:28:02;97922.94;;;14.87;79.62
62789;BME280;66401;42.016;21.454;2023-05-21T05:30:27;97923.84;;;14.93;79.56
62789;BME280;66401;42.016;21.454;2023-05-21T05:32:53;97918.81;;;14.91;79.81
62789;BME280;66401;42.016;21.454;2023-05-21T05:35:18;97927.47;;;15.03;80.16
62789;BME280;66401;42.016;21.454;2023-05-21T05:37:44;97920.88;;;14.89;79.64
62789;BME280;66401;42.016;21.454;2023-05-21T05:40:09;97926.00;;;14.84;79.99
62789;BME280;66401;42.016;21.454;2023-05-21T05:42:35;97916.09;;;14.98;80.24
62789;BME280;66401;42.016;21.454;2023-05-21T05:45:00;97917.47;;;15.00;78.43
62789;BME280;66401;42.016;21.454;2023-05-21T05:47:26;97926.75;;;15.43;78.10
62789;BME280;66401;42.016;21.454;2023-05-21T05:49:51;97913.06;;;15.64;75.72
62789;BME280;66401;42.016;21.454;2023-05-21T05:52:17;97918.31;;;15.64;75.69
62789;BME280;66401;42.016;21.454;2023-05-21T05:54:42;97913.72;;;16.00;75.54
62789;BME280;66401;42.016;21.454;2023-05-21T05:57:08;97914.81;;;16.16;76.18
62789;BME280;66401;42.016;21.454;2023-05-21T05:59:33;97915.09;;;16.31;74.60
62789;BME280;66401;42.016;21.454;2023-05-21T06:01:59;97909.91;;;16.36;73.92
62789;BME280;66401;42.016;21.454;2023-05-21T06:04:25;97913.03;;;16.50;73.87
62789;BME280;66401;42.016;21.454;2023-05-21T06:06:56;97923.50;;;16.62;72.54
62789;BME280;66401;42.016;21.454;2023-05-21T06:09:23;97926.19;;;16.67;72.81
62789;BME280;66401;42.016;21.454;2023-05-21T06:11:49;97909.16;;;16.69;73.12
62789;BME280;66401;42.016;21.454;2023-05-21T06:14:14;97915.69;;;16.83;71.13
62789;BME280;66401;42.016;21.454;2023-05-21T06:16:40;97923.50;;;16.78;71.91
62789;BME280;66401;42.016;21.454;2023-05-21T06:19:05;97923.66;;;16.88;71.10
62789;BME280;66401;42.016;21.454;2023-05-21T06:21:31;97913.91;;;16.55;72.39
62789;BME280;66401;42.016;21.454;2023-05-21T06:23:56;97909.56;;;16.16;73.54
62789;BME280;66401;42.016;21.454;2023-05-21T06:26:22;97919.75;;;16.12;76.59
62789;BME280;66401;42.016;21.454;2023-05-21T06:28:48;97922.19;;;16.47;74.02
62789;BME280;66401;42.016;21.454;2023-05-21T06:31:13;97919.97;;;16.56;73.53
62789;BME280;66401;42.016;21.454;2023-05-21T06:33:39;97911.03;;;16.57;73.82
62789;BME280;66401;42.016;21.454;2023-05-21T06:36:06;97917.13;;;16.91;72.16
62789;BME280;66401;42.016;21.454;2023-05-21T06:38:31;97921.91;;;16.15;74.66
62789;BME280;66401;42.016;21.454;2023-05-21T06:40:57;97907.69;;;16.45;73.21
62789;BME280;66401;42.016;21.454;2023-05-21T06:43:23;97912.50;;;16.81;71.39
62789;BME280;66401;42.016;21.454;2023-05-21T06:45:48;97908.66;;;17.06;70.81
62789;BME280;66401;42.016;21.454;2023-05-21T06:48:14;97913.97;;;17.28;69.97
62789;BME280;66401;42.016;21.454;2023-05-21T06:50:43;97908.66;;;17.06;69.32
62789;BME280;66401;42.016;21.454;2023-05-21T06:53:09;97910.97;;;17.19;69.95
62789;BME280;66401;42.016;21.454;2023-05-21T06:55:34;97913.97;;;17.50;69.95
62789;BME280;66401;42.016;21.454;2023-05-21T06:58:00;97907.75;;;17.78;67.56
62789;BME280;66401;42.016;21.454;2023-05-21T07:00:25;97915.28;;;18.18;67.97
62789;BME280;66401;42.016;21.454;2023-05-21T07:02:51;97906.41;;;18.56;65.21
62789;BME280;66401;42.016;21.454;2023-05-21T07:05:17;97899.31;;;18.62;65.96
62789;BME280;66401;42.016;21.454;2023-05-21T07:07:42;97896.97;;;18.33;65.08
62789;BME280;66401;42.016;21.454;2023-05-21T07:10:08;97903.75;;;18.24;64.83
62789;BME280;66401;42.016;21.454;2023-05-21T07:12:34;97892.75;;;18.64;65.74
62789;BME280;66401;42.016;21.454;2023-05-21T07:15:00;97895.94;;;19.03;65.94
62789;BME280;66401;42.016;21.454;2023-05-21T07:17:25;97899.97;;;19.16;64.21
62789;BME280;66401;42.016;21.454;2023-05-21T07:19:51;97897.69;;;19.35;63.89
62789;BME280;66401;42.016;21.454;2023-05-21T07:22:16;97898.91;;;19.12;64.10
62789;BME280;66401;42.016;21.454;2023-05-21T07:24:42;97893.94;;;18.78;66.21
62789;BME280;66401;42.016;21.454;2023-05-21T07:27:07;97898.72;;;18.22;67.40
62789;BME280;66401;42.016;21.454;2023-05-21T07:29:32;97901.00;;;18.14;68.02
62789;BME280;66401;42.016;21.454;2023-05-21T07:31:58;97894.28;;;18.28;67.23
62789;BME280;66401;42.016;21.454;2023-05-21T07:34:24;97902.38;;;18.16;68.34
62789;BME280;66401;42.016;21.454;2023-05-21T07:36:50;97889.44;;;18.74;65.38
62789;BME280;66401;42.016;21.454;2023-05-21T07:39:15;97887.28;;;18.71;63.01
62789;BME280;66401;42.016;21.454;2023-05-21T07:41:41;97891.84;;;19.28;62.96
62789;BME280;66401;42.016;21.454;2023-05-21T07:44:07;97883.59;;;19.14;61.18
62789;BME280;66401;42.016;21.454;2023-05-21T07:46:32;97891.91;;;19.38;60.52
62789;BME280;66401;42.016;21.454;2023-05-21T07:48:57;97888.25;;;19.49;62.39
62789;BME280;66401;42.016;21.454;2023-05-21T07:51:24;97884.97;;;19.84;62.04
62789;BME280;66401;42.016;21.454;2023-05-21T07:53:49;97882.38;;;19.32;61.53
62789;BME280;66401;42.016;21.454;2023-05-21T07:56:15;97889.09;;;19.07;60.31
62789;BME280;66401;42.016;21.454;2023-05-21T07:58:40;97890.38;;;19.00;61.14
62789;BME280;66401;42.016;21.454;2023-05-21T08:01:08;97894.44;;;18.75;59.94
62789;BME280;66401;42.016;21.454;2023-05-21T08:03:33;97894.19;;;18.77;63.10
62789;BME280;66401;42.016;21.454;2023-05-21T08:05:59;97884.25;;;18.89;64.60
62789;BME280;66401;42.016;21.454;2023-05-21T08:08:24;97891.66;;;18.92;63.72
62789;BME280;66401;42.016;21.454;2023-05-21T08:10:50;97896.97;;;18.97;63.29
62789;BME280;66401;42.016;21.454;2023-05-21T08:13:16;97870.56;;;18.97;64.13
62789;BME280;66401;42.016;21.454;2023-05-21T08:15:42;97893.84;;;19.05;61.05
62789;BME280;66401;42.016;21.454;2023-05-21T08:18:07;97893.94;;;18.78;59.93
62789;BME280;66401;42.016;21.454;2023-05-21T08:20:34;97880.00;;;18.88;61.51
62789;BME280;66401;42.016;21.454;2023-05-21T08:22:59;97880.97;;;19.14;62.77
62789;BME280;66401;42.016;21.454;2023-05-21T08:25:26;97879.66;;;19.16;60.71
62789;BME280;66401;42.016;21.454;2023-05-21T08:27:51;97890.78;;;19.29;59.36
62789;BME280;66401;42.016;21.454;2023-05-21T08:30:17;97891.03;;;19.80;58.20
62789;BME280;66401;42.016;21.454;2023-05-21T08:32:42;97890.22;;;19.16;57.54
62789;BME280;66401;42.016;21.454;2023-05-21T08:35:08;97897.38;;;19.84;61.65
62789;BME280;66401;42.016;21.454;2023-05-21T08:37:33;97889.47;;;19.84;56.35
62789;BME280;66401;42.016;21.454;2023-05-21T08:39:59;97899.31;;;20.14;62.16
62789;BME280;66401;42.016;21.454;2023-05-21T08:42:32;97886.38;;;20.38;60.69
62789;BME280;66401;42.016;21.454;2023-05-21T08:44:59;97885.81;;;20.15;62.15
62789;BME280;66401;42.016;21.454;2023-05-21T08:47:26;97882.19;;;20.47;59.76
62789;BME280;66401;42.016;21.454;2023-05-21T08:49:54;97887.97;;;20.95;58.89
62789;BME280;66401;42.016;21.454;2023-05-21T08:52:20;97891.16;;;20.86;55.77
62789;BME280;66401;42.016;21.454;2023-05-21T08:54:47;97890.56;;;21.10;54.21
62789;BME280;66401;42.016;21.454;2023-05-21T08:57:14;97883.72;;;20.83;53.84
62789;BME280;66401;42.016;21.454;2023-05-21T08:59:41;97880.81;;;20.24;53.12
62789;BME280;66401;42.016;21.454;2023-05-21T09:02:11;97879.78;;;20.55;54.23
62789;BME280;66401;42.016;21.454;2023-05-21T09:04:38;97876.31;;;20.96;55.12
62789;BME280;66401;42.016;21.454;2023-05-21T09:07:05;97881.56;;;21.11;56.32
62789;BME280;66401;42.016;21.454;2023-05-21T09:09:41;97874.22;;;20.52;54.67
62789;BME280;66401;42.016;21.454;2023-05-21T09:12:10;97873.97;;;20.58;55.71
62789;BME280;66401;42.016;21.454;2023-05-21T09:14:36;97886.88;;;21.01;52.46
62789;BME280;66401;42.016;21.454;2023-05-21T09:17:02;97880.97;;;21.45;54.27
62789;BME280;66401;42.016;21.454;2023-05-21T09:19:27;97877.28;;;21.25;54.03
62789;BME280;66401;42.016;21.454;2023-05-21T09:22:01;97882.50;;;21.56;52.33
62789;BME280;66401;42.016;21.454;2023-05-21T09:24:29;97873.50;;;21.57;51.82
62789;BME280;66401;42.016;21.454;2023-05-21T09:26:59;97877.72;;;21.63;52.57
62789;BME280;66401;42.016;21.454;2023-05-21T09:29:25;97863.38;;;22.13;52.93
62789;BME280;66401;42.016;21.454;2023-05-21T09:31:50;97866.84;;;22.14;51.17
62789;BME280;66401;42.016;21.454;2023-05-21T09:34:16;97863.34;;;22.18;48.87
62789;BME280;66401;42.016;21.454;2023-05-21T09:36:42;97862.66;;;21.53;51.28
62789;BME280;66401;42.016;21.454;2023-05-21T09:39:11;97858.47;;;21.91;52.42
62789;BME280;66401;42.016;21.454;2023-05-21T09:41:51;97871.13;;;21.99;49.97
62789;BME280;66401;42.016;21.454;2023-05-21T09:44:16;97872.22;;;21.44;49.74
62789;BME280;66401;42.016;21.454;2023-05-21T09:46:42;97865.69;;;21.06;50.86
62789;BME280;66401;42.016;21.454;2023-05-21T09:49:23;97872.06;;;20.90;51.81
62789;BME280;66401;42.016;21.454;2023-05-21T09:51:56;97866.50;;;20.91;51.75
62789;BME280;66401;42.016;21.454;2023-05-21T09:54:23;97863.88;;;20.96;51.87
62789;BME280;66401;42.016;21.454;2023-05-21T09:56:50;97865.84;;;21.45;52.37
62789;BME280;66401;42.016;21.454;2023-05-21T09:59:17;97864.59;;;21.17;49.15
62789;BME280;66401;42.016;21.454;2023-05-21T10:01:43;97860.88;;;21.18;49.83
62789;BME280;66401;42.016;21.454;2023-05-21T10:04:10;97863.81;;;21.27;48.40
62789;BME280;66401;42.016;21.454;2023-05-21T10:06:42;97861.41;;;21.25;47.12
62789;BME280;66401;42.016;21.454;2023-05-21T10:09:11;97861.41;;;21.35;49.30
62789;BME280;66401;42.016;21.454;2023-05-21T10:11:40;97856.50;;;21.63;48.85
62789;BME280;66401;42.016;21.454;2023-05-21T10:14:13;97858.09;;;21.59;45.99
62789;BME280;66401;42.016;21.454;2023-05-21T10:16:39;97841.81;;;21.81;46.49
62789;BME280;66401;42.016;21.454;2023-05-21T10:19:05;97846.38;;;21.70;42.78
62789;BME280;66401;42.016;21.454;2023-05-21T10:21:35;97842.44;;;22.12;43.88
62789;BME280;66401;42.016;21.454;2023-05-21T10:24:01;97848.00;;;21.61;43.67
62789;BME280;66401;42.016;21.454;2023-05-21T10:26:29;97838.25;;;22.00;42.11
62789;BME280;66401;42.016;21.454;2023-05-21T10:28:55;97834.81;;;22.68;43.01
62789;BME280;66401;42.016;21.454;2023-05-21T10:31:21;97841.06;;;23.06;40.23
62789;BME280;66401;42.016;21.454;2023-05-21T10:33:47;97834.53;;;22.99;40.86
62789;BME280;66401;42.016;21.454;2023-05-21T10:36:15;97844.84;;;23.48;40.74
62789;BME280;66401;42.016;21.454;2023-05-21T10:38:42;97836.41;;;23.65;41.48
62789;BME280;66401;42.016;21.454;2023-05-21T10:41:08;97834.09;;;23.96;39.82
62789;BME280;66401;42.016;21.454;2023-05-21T10:43:48;97838.69;;;22.76;39.97
62789;BME280;66401;42.016;21.454;2023-05-21T10:57:49;97837.94;;;23.47;39.87
62789;BME280;66401;42.016;21.454;2023-05-21T11:00:20;97832.19;;;23.40;39.70
62789;BME280;66401;42.016;21.454;2023-05-21T11:02:47;97831.31;;;23.68;41.35
62789;BME280;66401;42.016;21.454;2023-05-21T11:05:15;97830.06;;;23.61;41.50
62789;BME280;66401;42.016;21.454;2023-05-21T11:07:51;97823.31;;;23.02;41.09
62789;BME280;66401;42.016;21.454;2023-05-21T11:10:41;97825.22;;;22.96;41.18
62789;BME280;66401;42.016;21.454;2023-05-21T11:13:13;97822.59;;;22.96;43.34
62789;BME280;66401;42.016;21.454;2023-05-21T11:21:05;97819.81;;;21.80;42.30
62789;BME280;66401;42.016;21.454;2023-05-21T11:26:20;97811.75;;;22.00;44.04
62789;BME280;66401;42.016;21.454;2023-05-21T11:28:57;97808.31;;;22.34;43.83
62789;BME280;66401;42.016;21.454;2023-05-21T11:31:32;97805.06;;;22.42;43.37
62789;BME280;66401;42.016;21.454;2023-05-21T11:36:43;97798.66;;;21.75;42.70
62789;BME280;66401;42.016;21.454;2023-05-21T11:39:09;97804.47;;;21.77;43.14
62789;BME280;66401;42.016;21.454;2023-05-21T11:42:00;97787.91;;;21.51;45.12
62789;BME280;66401;42.016;21.454;2023-05-21T11:44:42;97791.25;;;21.72;44.77
62789;BME280;66401;42.016;21.454;2023-05-21T11:47:15;97790.56;;;21.95;44.13
62789;BME280;66401;42.016;21.454;2023-05-21T11:49:42;97791.56;;;21.99;44.63
62789;BME280;66401;42.016;21.454;2023-05-21T11:52:09;97794.34;;;21.84;43.58
62789;BME280;66401;42.016;21.454;2023-05-21T11:54:43;97803.44;;;21.73;42.55
62789;BME280;66401;42.016;21.454;2023-05-21T11:57:11;97814.56;;;21.75;43.29
62789;BME280;66401;42.016;21.454;2023-05-21T11:59:36;97796.09;;;21.60;44.59
62789;BME280;66401;42.016;21.454;2023-05-21T12:02:02;97799.66;;;21.79;46.26
62789;BME280;66401;42.016;21.454;2023-05-21T12:04:33;97802.81;;;21.86;45.50
62789;BME280;66401;42.016;21.454;2023-05-21T12:07:03;97806.56;;;21.80;46.32
62789;BME280;66401;42.016;21.454;2023-05-21T12:09:29;97809.81;;;21.72;46.22
62789;BME280;66401;42.016;21.454;2023-05-21T12:11:55;97807.94;;;21.73;46.13
62789;BME280;66401;42.016;21.454;2023-05-21T12:14:20;97802.31;;;21.79;44.32
62789;BME280;66401;42.016;21.454;2023-05-21T12:16:47;97802.38;;;21.69;43.33
62789;BME280;66401;42.016;21.454;2023-05-21T12:19:16;97792.13;;;21.62;44.39
62789;BME280;66401;42.016;21.454;2023-05-21T12:21:42;97811.41;;;21.68;42.90
62789;BME280;66401;42.016;21.454;2023-05-21T12:24:07;97794.53;;;21.54;43.08
62789;BME280;66401;42.016;21.454;2023-05-21T12:26:33;97814.41;;;21.51;42.02
62789;BME280;66401;42.016;21.454;2023-05-21T12:29:00;97808.69;;;21.34;41.78
62789;BME280;66401;42.016;21.454;2023-05-21T12:31:28;97811.09;;;21.25;40.36
62789;BME280;66401;42.016;21.454;2023-05-21T12:33:55;97778.84;;;21.03;42.12
62789;BME280;66401;42.016;21.454;2023-05-21T12:36:21;97808.16;;;21.22;42.64
62789;BME280;66401;42.016;21.454;2023-05-21T12:38:48;97808.94;;;21.22;43.15
62789;BME280;66401;42.016;21.454;2023-05-21T12:41:15;97814.22;;;21.32;43.99
62789;BME280;66401;42.016;21.454;2023-05-21T12:43:41;97808.69;;;21.34;41.90
62789;BME280;66401;42.016;21.454;2023-05-21T12:46:06;97808.94;;;21.32;42.32
62789;BME280;66401;42.016;21.454;2023-05-21T12:48:32;97819.69;;;20.71;48.91
62789;BME280;66401;42.016;21.454;2023-05-21T12:50:58;97824.72;;;19.96;54.61
62789;BME280;66401;42.016;21.454;2023-05-21T12:53:24;97822.56;;;19.68;56.98
62789;BME280;66401;42.016;21.454;2023-05-21T12:55:49;97820.19;;;19.66;56.84
62789;BME280;66401;42.016;21.454;2023-05-21T12:58:14;97820.72;;;19.68;58.75
62789;BME280;66401;42.016;21.454;2023-05-21T13:00:41;97817.47;;;19.41;59.05
62789;BME280;66401;42.016;21.454;2023-05-21T13:03:08;97820.66;;;19.53;58.90
62789;BME280;66401;42.016;21.454;2023-05-21T13:05:33;97804.91;;;19.79;58.65
62789;BME280;66401;42.016;21.454;2023-05-21T13:07:59;97827.63;;;19.85;58.75
62789;BME280;66401;42.016;21.454;2023-05-21T13:10:25;97841.94;;;20.14;59.04
62789;BME280;66401;42.016;21.454;2023-05-21T13:12:50;97839.81;;;20.01;59.13